Terminal Aerodrome Forecast
Issued by NWS Austin/San Antonio, TX

Home | Current Version | Previous Version | Text Only | Print | Product List | Glossary On
Versions: 1 2 3 4 5 6 7 8 9 10 11 12 13 14 15 16
000
FTUS44 KEWX 270500
TAFAUS
TAF
KAUS 270525Z 2706/2812 17005KT 6SM BR OVC012
     FM270800 17005KT 5SM BR OVC007
     FM271100 36004KT 4SM -DZ BR OVC005
     FM271600 36014KT P6SM VCSH OVC015
     FM271900 36015G22KT P6SM OVC015
     FM280100 36016KT P6SM OVC015
     FM280800 36015KT P6SM OVC025=

USA.gov is the U.S. government's official web portal to all federal, state and local government web resources and services.